Warm Springs Summit, Nevada Weather observations

Data are for observation ending at time listed.
 Day   Time    Ave.   Ave.  Ave.  Vector   Max.   Stn.    Total    Solar   Ave.  
  of    of     Air    Rel.  Wind   Wind    Wind   Baro.  Precip.   Rad.    Soil  
Year   Day     Temp.  Hum.  Speed  Dir.    Gust   Pres.                    Temp. 
2014   (PST)    F      %     mph   deg.    mph     mb.     in.     W/m2     F   
------------------------------------------------------------------------------
 208    6:10   68.8    33   10.6   260     13.6   779.0    0.00     156    77.5
 208    6:20   69.5    32   12.3   249     16.3   779.1    0.00     200    77.4
 208    6:30   70.3    31   11.0   246     14.5   779.2    0.00     325    77.3
 208    6:40   71.3    30    9.4   240     12.8   779.4    0.00     364    77.2
 208    6:50   71.9    29    5.8   230      9.9   779.6    0.00     258    77.2
 208    7:00   71.9    29    5.4   228      9.2   779.7    0.00     241    77.1
 208    7:10   73.0    27    4.4   198      8.5   779.8    0.00     361    77.0
 208    7:20   74.4    26    4.2   179      8.4   779.9    0.00     369    76.9
 208    7:30   74.1    27    3.4   154      4.9   780.0    0.00     328    76.9
 208    7:40   73.5    28    4.4   135      7.1   780.1    0.00     285    76.9
 208    7:50   72.6    29    5.1   128      7.5   780.1    0.00     314    76.8
 208    8:00   72.5    29    4.6   120      8.7   780.1    0.00     346    76.8
 208    8:10   72.8    28    3.7   113      6.0   780.1    0.00     356    76.8
 208    8:20   73.9    28    4.4   114      7.9   780.1    0.00     456    76.8
 208    8:30   74.6    26    4.0   141      6.9   780.2    0.00     305    76.9
 208    8:40   73.8    27    2.7   116      7.0   780.2    0.00     261    76.9
 208    8:50   74.5    27    4.5   127      7.1   780.2    0.00     462    76.9
 208    9:00   76.7    25    2.8   138      6.9   780.2    0.00     642    77.0
 208    9:10   77.2    24    4.6   118      9.0   780.2    0.00     626    77.0
 208    9:20   78.0    23    2.7   224     11.4   780.2    0.00     429    77.1
 208    9:30   77.1    24    3.7   216      9.1   780.3    0.00     350    77.2
 208    9:40   78.5    23    4.4   146     10.0   780.2    0.00     857    77.3
 208    9:50   78.4    22    4.2   193     10.7   780.2    0.00     399    77.4
 208   10:00   77.6    23    5.4   277     12.7   780.2    0.00     855    77.5
 208   10:10   79.7    21    5.5   287     12.4   780.2    0.00    1132    77.6
 208   10:20   79.8    21    7.3   280     14.7   780.1    0.00    1079    77.7
 208   10:30   79.6    21    5.8   191     14.9   780.0    0.00     412    77.9
 208   10:40   77.4    24   11.2   209     18.5   780.0    0.00     257    78.0
 208   10:50   77.3    24   10.7   175     17.8   780.0    0.00     375    78.2
 208   11:00   77.3    25   11.4   137     21.5   779.8    0.00     744    78.4
 208   11:10   79.7    22    4.3   110      9.6   779.8    0.00     965    78.6
 208   11:20   82.1    20    4.3    75      8.0   779.7    0.00     958    78.8
 208   11:30   80.9    21    5.8    90     10.3   779.7    0.00     592    79.0
 208   11:40   79.0    23    7.2   121     14.5   779.7    0.00     324    79.2
 208   11:50   78.0    23    7.7   144     14.5   779.7    0.00     206    79.4
 208   12:00   75.7    28   10.6   112     25.6   779.8    0.00     101    79.7
 208   12:10   67.7    54   28.0   115     37.9   779.1    0.01      85    79.9
 208   12:20   65.2    58   21.3   116     31.5   779.5    0.00      96    80.1
 208   12:30   65.6    56   11.6   115     20.7   780.0    0.00      63    80.3
 208   12:40   64.8    59   17.4   226     26.6   780.2    0.00      60    80.5
 208   12:50   63.4    62   19.3   252     24.8   780.3    0.00      56    80.6
 208   13:00   62.9    60   22.8   266     29.6   780.2    0.00      66    80.7
 208   13:10   64.1    54   27.0   266     36.8   780.2    0.00      66    80.8
 208   13:20   64.5    52   32.3   258     45.3   779.9    0.00      73    80.9
 208   13:30   63.1    50   45.8   237     69.4   778.7    0.00      81    80.8
 208   13:40   58.0    71   53.9   238     79.3   778.0    0.01      67    80.8
 208   13:50   60.8    61   38.8   280     54.0   778.8    0.01      88    80.7
 208   14:00   62.3    51   26.1   299     35.7   779.1    0.00     140    80.6
 208   14:10   65.9    38   20.0   300     31.5   779.2    0.00     237    80.5
 208   14:20   69.1    35   11.6   293     24.1   779.3    0.00     333    80.4
 208   14:30   69.7    34    9.9   290     15.6   779.2    0.00     340    80.2
 208   14:40   72.1    29   10.1   226     13.6   779.4    0.00     299    80.1
 208   14:50   72.6    28   12.6   199     17.7   779.4    0.00     220    79.9
 208   15:00   70.7    34   20.6   162     31.7   779.3    0.00     156    79.7
 208   15:10   68.1    41   24.0   154     36.7   779.2    0.00     176    79.5
 208   15:20   66.6    43   30.2   147     38.3   778.9    0.00     168    79.3
 208   15:30   67.1    41   28.9   146     36.9   778.9    0.00     151    79.2
 208   15:40   67.2    40   37.4   150     47.5   778.3    0.00     147    79.0
 208   15:50   67.3    36   38.9   151     50.2   778.1    0.00     132    78.9
 208   16:00   67.8    35   29.8   141     39.8   778.4    0.00     113    78.7
 208   16:10   68.5    34   24.4   147     33.1   778.6    0.00     147    78.5
 208   16:20   67.9    35   15.4   137     22.9   778.6    0.00     195    78.4
 208   16:30   69.6    30   10.1   150     14.4   778.5    0.00     192    78.3
 208   16:40   70.6    29    7.8   153     14.2   778.5    0.00     170    78.1
 208   16:50   71.8    26   10.8   149     14.3   778.5    0.00     167    78.0
 208   17:00   72.9    24   10.7   153     16.3   778.4    0.00     193    77.9
 208   17:10   73.4    24   11.4   159     15.1   778.3    0.00     239    77.8
 208   17:20   74.0    23    9.1   150     13.6   778.4    0.00     227    77.6
 208   17:30   73.3    24    9.7   154     15.0   778.5    0.00     176    77.5
 208   17:40   73.3    24    9.9   146     15.8   778.6    0.00     164    77.5
 208   17:50   72.8    25    8.2   157     13.3   778.7    0.00     133    77.4
 208   18:00   72.5    26    7.6   143     12.2   778.8    0.00      79    77.3
 208   18:10   71.8    29    5.9   130     10.1   778.8    0.00      57    77.2
 208   18:20   71.4    29    4.5   143      6.8   778.8    0.00      36    77.1
 208   18:30   71.4    28    3.7   162      5.7   778.8    0.00      23    77.0
 208   18:40   71.6    28    4.8   239      9.0   778.8    0.00      13    77.0
 208   18:50   71.5    28    4.9   278      8.2   779.0    0.00       8    76.9
 208   19:00   71.0    30    4.2     2      6.4   779.1    0.00       4    76.8
 208   19:10   68.9    37    4.0   357      7.5   779.1    0.00       1    76.8
 208   19:20   70.0    30    2.0    79      5.3   779.2    0.00       0    76.7
 208   19:30   70.3    32    5.7    44      6.7   779.3    0.00       0    76.7
 208   19:40   69.4    34   10.0   118     16.7   779.3    0.00       0    76.6
 208   19:50   68.7    37   13.5   116     24.2   779.4    0.00       0    76.5
 208   20:00   68.0    40   20.6   131     27.7   779.3    0.00       0    76.4
 208   20:10   67.2    44   19.1   123     25.9   779.5    0.00       0    76.4
 208   20:20   66.7    45   13.5   121     19.3   779.9    0.00       0    76.3
 208   20:30   66.2    47   10.1    88     14.4   780.2    0.00       0    76.2
 208   20:40   66.1    47    6.1    81     10.1   780.3    0.00       0    76.1
 208   20:50   66.0    48    7.2    95     11.2   780.3    0.00       0    76.0
 208   21:00   65.8    48    8.7    82     11.7   780.2    0.00       0    76.0
 208   21:10   65.6    49    7.9    66     12.3   780.4    0.00       0    75.9
 208   21:20   64.5    51    9.5    65     13.3   780.4    0.00       0    75.8
 208   21:30   65.1    50   11.9    97     16.9   780.3    0.00       0    75.7
 208   21:40   65.2    50   11.2    98     17.4   780.4    0.00       0    75.6
 208   21:50   64.8    50    9.2    88     15.5   780.4    0.00       0    75.5
 208   22:00   65.2    49   10.5   123     16.2   780.2    0.00       0    75.5
 208   22:10   65.1    49    7.7   111     10.7   780.3    0.00       0    75.4
 208   22:20   65.6    48    6.9   118     10.1   780.3    0.00       0    75.3
 208   22:30   66.0    45    7.7   164     10.9   780.3    0.00       0    75.2
 208   22:40   66.5    43    6.6   189      9.5   780.3    0.00       0    75.1
 208   22:50   66.8    42    7.0   204      9.8   780.3    0.00       0    75.1
 208   23:00   67.1    41   10.7   211     14.1   780.2    0.00       0    75.0
 208   23:10   67.0    41   10.6   221     14.6   780.2    0.00       0    74.9
 208   23:20   66.9    41   11.9   220     15.5   780.2    0.00       0    74.8
 208   23:30   66.5    42   10.9   241     12.6   780.2    0.00       0    74.8
 208   23:40   66.8    42   10.2   254     12.2   780.1    0.00       0    74.7
 208   23:50   66.7    42    9.7   257     11.2   780.1    0.00       0    74.6
 209    0:00   66.5    43   10.5   260     12.0   780.1    0.00       0    74.5
 209    0:10   66.5    43    7.7   257      9.2   780.0    0.00       0    74.4
 209    0:20   66.3    43    9.7   263     12.5   780.0    0.00       0    74.4
 209    0:30   65.8    45    9.2   268     12.5   780.0    0.00       0    74.3
 209    0:40   65.2    46    9.8   272     12.1   780.0    0.00       0    74.2
 209    0:50   64.8    48    9.2   264     11.8   779.9    0.00       0    74.2
 209    1:00   64.9    48    6.4   262      8.5   779.9    0.00       0    74.1
 209    1:10   65.2    48    6.2   282      8.9   779.8    0.00       0    74.0
 209    1:20   65.3    48    4.8   280      7.6   779.8    0.00       0    74.0
 209    1:30   65.0    49    3.4   299      4.9   779.8    0.00       0    73.9
 209    1:40   65.8    45    2.4   259      5.7   779.7    0.00       0    73.9
 209    1:50   66.0    46    4.9   226      6.3   779.7    0.00       0    73.8
 209    2:00   65.5    47    4.4   236      5.9   779.8    0.00       0    73.7
 209    2:10   65.7    46    4.5   209      6.5   779.8    0.00       0    73.7
 209    2:20   65.6    46    4.5   196      5.5   779.8    0.00       0    73.6
 209    2:30   65.8    44    5.2   198      6.6   779.7    0.00       0    73.6
 209    2:40   66.0    44    5.6   220      7.2   779.6    0.00       0    73.5
 209    2:50   66.1    43    7.7   218     10.6   779.7    0.00       0    73.5
 209    3:00   66.2    43    8.0   216     10.6   779.7    0.00       0    73.4
 209    3:10   65.9    44    8.6   207     11.2   779.7    0.00       0    73.3
 209    3:20   65.4    45    7.9   200      9.2   779.8    0.00       0    73.3
 209    3:30   64.9    47    7.3   194     10.2   779.9    0.00       0    73.2
 209    3:40   64.1    49    7.8   207      8.9   779.9    0.00       0    73.2
 209    3:50   64.3    48    8.9   209      9.8   779.8    0.00       0    73.1
 209    4:00   64.6    47    9.8   203     12.9   779.8    0.00       0    73.1
 209    4:10   64.8    46    8.9   199     10.7   779.8    0.00       0    73.0
 209    4:20   64.6    47    7.7   222      9.5   779.9    0.00       0    73.0
 209    4:30   64.2    49    6.6   239      7.9   780.0    0.00       0    72.9
 209    4:40   64.1    49    6.7   234      9.8   780.0    0.00       1    72.9
 209    4:50   64.3    49    7.0   252     10.8   780.0    0.00       2    72.8
 209    5:00   63.8    50    5.2   288      7.7   780.0    0.00       5    72.8
 209    5:10   63.4    51    6.7   299      9.1   780.0    0.00       9    72.7
 209    5:20   63.4    51    7.6   280     11.3   780.0    0.00      21    72.7
 209    5:30   63.2    52    9.7   273     12.0   780.0    0.00      43    72.6
 209    5:40   62.7    54   10.6   276     12.5   780.0    0.00      63    72.6
 209    5:50   62.5    55    9.0   280     11.0   780.2    0.00      83    72.5
 209    6:00   62.6    55    6.7   262      9.2   780.2    0.00     100    72.5

Return to Warm Springs Summit, Nevada graphs page.


Western Regional Climate Center,wrcc@dri.edu